sensor_id;sensor_type;location;lat;lon;timestamp;temperature;humidity
8269;DHT22;4174;48.304;16.364;2023-07-30T00:02:16;24.30;99.90
8269;DHT22;4174;48.304;16.364;2023-07-30T00:08:20;24.30;99.90
8269;DHT22;4174;48.304;16.364;2023-07-30T00:14:26;24.30;99.90
8269;DHT22;4174;48.304;16.364;2023-07-30T00:20:33;23.80;99.90
8269;DHT22;4174;48.304;16.364;2023-07-30T00:26:36;23.80;99.90
8269;DHT22;4174;48.304;16.364;2023-07-30T00:32:48;23.80;99.90
8269;DHT22;4174;48.304;16.364;2023-07-30T00:38:55;23.80;99.90
8269;DHT22;4174;48.304;16.364;2023-07-30T00:44:59;23.80;99.90
8269;DHT22;4174;48.304;16.364;2023-07-30T00:51:07;23.90;99.90
8269;DHT22;4174;48.304;16.364;2023-07-30T00:57:12;24.00;99.90
8269;DHT22;4174;48.304;16.364;2023-07-30T01:03:17;24.00;99.90
8269;DHT22;4174;48.304;16.364;2023-07-30T01:09:22;24.00;99.90
8269;DHT22;4174;48.304;16.364;2023-07-30T01:15:49;24.00;99.90
8269;DHT22;4174;48.304;16.364;2023-07-30T01:21:56;24.10;99.90
8269;DHT22;4174;48.304;16.364;2023-07-30T01:28:00;24.00;99.90
8269;DHT22;4174;48.304;16.364;2023-07-30T01:34:13;24.10;99.90
8269;DHT22;4174;48.304;16.364;2023-07-30T01:40:17;24.00;99.90
8269;DHT22;4174;48.304;16.364;2023-07-30T01:46:22;23.90;99.90
8269;DHT22;4174;48.304;16.364;2023-07-30T01:52:28;23.70;99.90
8269;DHT22;4174;48.304;16.364;2023-07-30T01:58:32;23.70;99.90
8269;DHT22;4174;48.304;16.364;2023-07-30T02:04:38;23.80;99.90
8269;DHT22;4174;48.304;16.364;2023-07-30T02:10:44;23.70;99.90
8269;DHT22;4174;48.304;16.364;2023-07-30T02:16:48;23.70;99.90
8269;DHT22;4174;48.304;16.364;2023-07-30T02:22:52;23.80;99.90
8269;DHT22;4174;48.304;16.364;2023-07-30T02:28:58;23.80;99.90
8269;DHT22;4174;48.304;16.364;2023-07-30T02:35:03;23.80;99.90
8269;DHT22;4174;48.304;16.364;2023-07-30T02:41:08;23.60;99.90
8269;DHT22;4174;48.304;16.364;2023-07-30T02:47:13;23.60;99.90
8269;DHT22;4174;48.304;16.364;2023-07-30T02:53:19;23.60;99.90
8269;DHT22;4174;48.304;16.364;2023-07-30T02:59:24;23.60;99.90
8269;DHT22;4174;48.304;16.364;2023-07-30T03:05:29;23.60;99.90
8269;DHT22;4174;48.304;16.364;2023-07-30T03:11:35;23.70;99.90
8269;DHT22;4174;48.304;16.364;2023-07-30T03:17:40;23.60;99.90
8269;DHT22;4174;48.304;16.364;2023-07-30T03:23:45;23.60;99.90
8269;DHT22;4174;48.304;16.364;2023-07-30T03:29:50;23.60;99.90
8269;DHT22;4174;48.304;16.364;2023-07-30T03:35:59;23.50;99.90
8269;DHT22;4174;48.304;16.364;2023-07-30T03:42:03;23.50;99.90
8269;DHT22;4174;48.304;16.364;2023-07-30T03:48:10;23.50;99.90
8269;DHT22;4174;48.304;16.364;2023-07-30T03:54:16;23.50;99.90
8269;DHT22;4174;48.304;16.364;2023-07-30T04:00:20;23.40;99.90
8269;DHT22;4174;48.304;16.364;2023-07-30T04:06:26;23.30;99.90
8269;DHT22;4174;48.304;16.364;2023-07-30T04:12:31;23.30;99.90
8269;DHT22;4174;48.304;16.364;2023-07-30T04:18:36;23.40;99.90
8269;DHT22;4174;48.304;16.364;2023-07-30T04:24:40;23.30;99.90
8269;DHT22;4174;48.304;16.364;2023-07-30T04:30:46;23.30;99.90
8269;DHT22;4174;48.304;16.364;2023-07-30T04:36:54;23.30;99.90
8269;DHT22;4174;48.304;16.364;2023-07-30T04:43:02;23.30;99.90
8269;DHT22;4174;48.304;16.364;2023-07-30T04:49:08;23.40;99.90
8269;DHT22;4174;48.304;16.364;2023-07-30T04:55:13;23.30;99.90
8269;DHT22;4174;48.304;16.364;2023-07-30T05:01:20;23.50;99.90
8269;DHT22;4174;48.304;16.364;2023-07-30T05:07:25;23.60;99.90
8269;DHT22;4174;48.304;16.364;2023-07-30T05:13:29;23.50;99.90
8269;DHT22;4174;48.304;16.364;2023-07-30T05:19:43;23.70;99.90
8269;DHT22;4174;48.304;16.364;2023-07-30T05:25:48;23.80;99.90
8269;DHT22;4174;48.304;16.364;2023-07-30T05:31:54;24.20;99.90
8269;DHT22;4174;48.304;16.364;2023-07-30T05:38:00;24.20;99.90
8269;DHT22;4174;48.304;16.364;2023-07-30T05:44:06;24.20;99.90
8269;DHT22;4174;48.304;16.364;2023-07-30T05:50:13;24.00;99.90
8269;DHT22;4174;48.304;16.364;2023-07-30T05:56:18;24.00;99.90
8269;DHT22;4174;48.304;16.364;2023-07-30T06:02:25;24.00;99.90
8269;DHT22;4174;48.304;16.364;2023-07-30T06:14:58;23.70;99.90
8269;DHT22;4174;48.304;16.364;2023-07-30T06:21:03;23.70;99.90
8269;DHT22;4174;48.304;16.364;2023-07-30T06:27:07;23.70;99.90
8269;DHT22;4174;48.304;16.364;2023-07-30T06:33:13;23.30;99.90
8269;DHT22;4174;48.304;16.364;2023-07-30T06:39:18;23.30;99.90
8269;DHT22;4174;48.304;16.364;2023-07-30T06:45:24;23.30;99.90
8269;DHT22;4174;48.304;16.364;2023-07-30T06:51:30;23.30;99.90
8269;DHT22;4174;48.304;16.364;2023-07-30T06:57:35;23.40;99.90
8269;DHT22;4174;48.304;16.364;2023-07-30T07:03:39;23.40;99.90
8269;DHT22;4174;48.304;16.364;2023-07-30T07:09:48;23.30;99.90
8269;DHT22;4174;48.304;16.364;2023-07-30T07:16:03;23.20;99.90
8269;DHT22;4174;48.304;16.364;2023-07-30T07:22:07;23.00;99.90
8269;DHT22;4174;48.304;16.364;2023-07-30T07:28:12;23.00;99.90
8269;DHT22;4174;48.304;16.364;2023-07-30T07:34:16;22.80;99.90
8269;DHT22;4174;48.304;16.364;2023-07-30T07:40:21;22.30;99.90
8269;DHT22;4174;48.304;16.364;2023-07-30T07:46:26;22.00;99.90
8269;DHT22;4174;48.304;16.364;2023-07-30T07:52:31;21.70;99.90
8269;DHT22;4174;48.304;16.364;2023-07-30T07:58:36;21.70;99.90
8269;DHT22;4174;48.304;16.364;2023-07-30T08:04:41;22.00;99.90
8269;DHT22;4174;48.304;16.364;2023-07-30T08:10:44;22.30;99.90
8269;DHT22;4174;48.304;16.364;2023-07-30T08:16:51;22.70;99.90
8269;DHT22;4174;48.304;16.364;2023-07-30T08:22:56;22.90;99.90
8269;DHT22;4174;48.304;16.364;2023-07-30T08:29:01;22.90;99.90
8269;DHT22;4174;48.304;16.364;2023-07-30T08:35:06;22.90;99.90
8269;DHT22;4174;48.304;16.364;2023-07-30T08:41:12;23.70;99.90
8269;DHT22;4174;48.304;16.364;2023-07-30T08:47:16;23.60;99.90
8269;DHT22;4174;48.304;16.364;2023-07-30T08:53:20;23.80;99.90
8269;DHT22;4174;48.304;16.364;2023-07-30T08:59:25;24.40;99.90
8269;DHT22;4174;48.304;16.364;2023-07-30T09:05:29;24.90;99.90
8269;DHT22;4174;48.304;16.364;2023-07-30T09:11:33;25.50;99.90
8269;DHT22;4174;48.304;16.364;2023-07-30T09:17:38;25.90;99.90
8269;DHT22;4174;48.304;16.364;2023-07-30T09:23:49;26.70;99.90
8269;DHT22;4174;48.304;16.364;2023-07-30T09:29:53;26.70;99.90
8269;DHT22;4174;48.304;16.364;2023-07-30T09:35:57;27.90;99.90
8269;DHT22;4174;48.304;16.364;2023-07-30T09:42:06;29.20;99.90
8269;DHT22;4174;48.304;16.364;2023-07-30T09:48:12;29.10;99.90
8269;DHT22;4174;48.304;16.364;2023-07-30T09:54:16;29.60;99.90
8269;DHT22;4174;48.304;16.364;2023-07-30T10:00:21;31.10;99.90
8269;DHT22;4174;48.304;16.364;2023-07-30T10:06:28;29.20;99.90
8269;DHT22;4174;48.304;16.364;2023-07-30T10:12:31;29.20;99.90
8269;DHT22;4174;48.304;16.364;2023-07-30T10:18:39;30.50;99.90
8269;DHT22;4174;48.304;16.364;2023-07-30T10:24:58;31.40;99.90
8269;DHT22;4174;48.304;16.364;2023-07-30T10:31:03;31.00;98.80
8269;DHT22;4174;48.304;16.364;2023-07-30T10:37:06;29.00;99.90
8269;DHT22;4174;48.304;16.364;2023-07-30T10:43:15;28.00;99.90
8269;DHT22;4174;48.304;16.364;2023-07-30T10:49:18;27.50;99.90
8269;DHT22;4174;48.304;16.364;2023-07-30T10:55:23;27.30;99.90
8269;DHT22;4174;48.304;16.364;2023-07-30T11:01:28;26.80;99.90
8269;DHT22;4174;48.304;16.364;2023-07-30T11:07:35;26.70;99.90
8269;DHT22;4174;48.304;16.364;2023-07-30T11:13:41;26.90;99.90
8269;DHT22;4174;48.304;16.364;2023-07-30T11:19:45;29.00;99.90
8269;DHT22;4174;48.304;16.364;2023-07-30T11:25:49;29.00;99.90
8269;DHT22;4174;48.304;16.364;2023-07-30T11:31:57;30.30;99.90
8269;DHT22;4174;48.304;16.364;2023-07-30T11:38:03;30.40;99.90
8269;DHT22;4174;48.304;16.364;2023-07-30T11:44:08;30.40;99.90
8269;DHT22;4174;48.304;16.364;2023-07-30T11:50:11;28.90;99.90
8269;DHT22;4174;48.304;16.364;2023-07-30T11:56:22;27.70;99.90
8269;DHT22;4174;48.304;16.364;2023-07-30T12:02:28;26.90;99.90
8269;DHT22;4174;48.304;16.364;2023-07-30T12:08:33;26.80;99.90
8269;DHT22;4174;48.304;16.364;2023-07-30T12:14:43;27.40;99.90
8269;DHT22;4174;48.304;16.364;2023-07-30T12:20:46;27.60;99.90
8269;DHT22;4174;48.304;16.364;2023-07-30T12:26:54;27.40;99.90
8269;DHT22;4174;48.304;16.364;2023-07-30T12:32:57;27.70;99.90
8269;DHT22;4174;48.304;16.364;2023-07-30T12:39:01;28.40;99.90
8269;DHT22;4174;48.304;16.364;2023-07-30T12:45:07;29.20;99.90
8269;DHT22;4174;48.304;16.364;2023-07-30T12:51:11;29.90;99.90
8269;DHT22;4174;48.304;16.364;2023-07-30T12:57:16;30.20;99.90
8269;DHT22;4174;48.304;16.364;2023-07-30T13:03:22;30.70;99.90
8269;DHT22;4174;48.304;16.364;2023-07-30T13:09:30;31.20;99.90
8269;DHT22;4174;48.304;16.364;2023-07-30T13:15:34;31.10;99.90
8269;DHT22;4174;48.304;16.364;2023-07-30T13:21:40;31.20;99.90
8269;DHT22;4174;48.304;16.364;2023-07-30T13:27:48;31.20;99.90
8269;DHT22;4174;48.304;16.364;2023-07-30T13:33:56;31.60;99.90
8269;DHT22;4174;48.304;16.364;2023-07-30T13:40:02;31.50;99.90
8269;DHT22;4174;48.304;16.364;2023-07-30T13:46:09;30.20;99.30
8269;DHT22;4174;48.304;16.364;2023-07-30T13:52:13;30.20;99.30
8269;DHT22;4174;48.304;16.364;2023-07-30T13:58:15;30.00;99.90
8269;DHT22;4174;48.304;16.364;2023-07-30T14:04:19;29.50;99.90
8269;DHT22;4174;48.304;16.364;2023-07-30T14:10:23;28.70;99.90
8269;DHT22;4174;48.304;16.364;2023-07-30T14:16:26;28.30;99.90
8269;DHT22;4174;48.304;16.364;2023-07-30T14:22:30;27.30;99.90
8269;DHT22;4174;48.304;16.364;2023-07-30T14:28:35;25.80;99.90
8269;DHT22;4174;48.304;16.364;2023-07-30T14:34:38;25.80;99.90
8269;DHT22;4174;48.304;16.364;2023-07-30T14:40:42;25.90;99.90
8269;DHT22;4174;48.304;16.364;2023-07-30T14:46:44;25.70;99.90
8269;DHT22;4174;48.304;16.364;2023-07-30T14:52:48;25.30;99.90
8269;DHT22;4174;48.304;16.364;2023-07-30T14:58:52;25.60;99.90
8269;DHT22;4174;48.304;16.364;2023-07-30T15:04:56;25.20;99.90
8269;DHT22;4174;48.304;16.364;2023-07-30T15:10:59;25.10;99.90
8269;DHT22;4174;48.304;16.364;2023-07-30T15:17:04;25.40;99.90
8269;DHT22;4174;48.304;16.364;2023-07-30T15:23:07;25.30;99.90
8269;DHT22;4174;48.304;16.364;2023-07-30T15:29:11;25.40;99.90
8269;DHT22;4174;48.304;16.364;2023-07-30T15:35:14;25.20;99.90
8269;DHT22;4174;48.304;16.364;2023-07-30T15:41:18;24.80;99.90
8269;DHT22;4174;48.304;16.364;2023-07-30T15:47:21;24.20;99.90
8269;DHT22;4174;48.304;16.364;2023-07-30T15:53:25;24.10;99.90
8269;DHT22;4174;48.304;16.364;2023-07-30T15:59:28;23.70;99.90
8269;DHT22;4174;48.304;16.364;2023-07-30T16:05:31;23.30;99.90
8269;DHT22;4174;48.304;16.364;2023-07-30T16:11:35;23.30;99.90
8269;DHT22;4174;48.304;16.364;2023-07-30T16:17:38;23.60;99.90
8269;DHT22;4174;48.304;16.364;2023-07-30T16:23:42;23.40;99.90
8269;DHT22;4174;48.304;16.364;2023-07-30T16:29:46;23.40;99.90
8269;DHT22;4174;48.304;16.364;2023-07-30T16:35:49;23.40;99.90
8269;DHT22;4174;48.304;16.364;2023-07-30T16:41:52;23.30;99.90
8269;DHT22;4174;48.304;16.364;2023-07-30T16:47:56;23.20;99.90
8269;DHT22;4174;48.304;16.364;2023-07-30T16:54:00;23.00;99.90
8269;DHT22;4174;48.304;16.364;2023-07-30T17:00:05;22.90;99.90
8269;DHT22;4174;48.304;16.364;2023-07-30T17:06:11;23.20;99.90
8269;DHT22;4174;48.304;16.364;2023-07-30T17:12:14;23.20;99.90
8269;DHT22;4174;48.304;16.364;2023-07-30T17:18:20;23.30;99.90
8269;DHT22;4174;48.304;16.364;2023-07-30T17:24:21;23.30;99.90
8269;DHT22;4174;48.304;16.364;2023-07-30T17:30:24;23.30;99.90
8269;DHT22;4174;48.304;16.364;2023-07-30T17:36:29;23.30;99.90
8269;DHT22;4174;48.304;16.364;2023-07-30T17:42:32;23.30;99.90
8269;DHT22;4174;48.304;16.364;2023-07-30T17:48:36;23.40;99.90
8269;DHT22;4174;48.304;16.364;2023-07-30T17:54:40;23.20;99.90
8269;DHT22;4174;48.304;16.364;2023-07-30T18:00:43;23.00;99.90
8269;DHT22;4174;48.304;16.364;2023-07-30T18:06:47;22.90;99.90
8269;DHT22;4174;48.304;16.364;2023-07-30T18:12:50;22.80;99.90
8269;DHT22;4174;48.304;16.364;2023-07-30T18:18:54;22.00;99.90
8269;DHT22;4174;48.304;16.364;2023-07-30T18:24:59;22.00;99.90
8269;DHT22;4174;48.304;16.364;2023-07-30T18:31:03;21.30;99.90
8269;DHT22;4174;48.304;16.364;2023-07-30T18:37:06;21.20;99.90
8269;DHT22;4174;48.304;16.364;2023-07-30T18:43:10;20.90;99.90
8269;DHT22;4174;48.304;16.364;2023-07-30T18:49:14;20.80;99.90
8269;DHT22;4174;48.304;16.364;2023-07-30T18:55:18;20.80;99.90
8269;DHT22;4174;48.304;16.364;2023-07-30T19:01:22;20.70;99.90
8269;DHT22;4174;48.304;16.364;2023-07-30T19:07:25;20.60;99.90
8269;DHT22;4174;48.304;16.364;2023-07-30T19:13:29;20.70;99.90
8269;DHT22;4174;48.304;16.364;2023-07-30T19:19:32;20.80;99.90
8269;DHT22;4174;48.304;16.364;2023-07-30T19:25:36;20.80;99.90
8269;DHT22;4174;48.304;16.364;2023-07-30T19:31:40;20.80;99.90
8269;DHT22;4174;48.304;16.364;2023-07-30T19:37:44;20.90;99.90
8269;DHT22;4174;48.304;16.364;2023-07-30T19:43:47;21.00;99.90
8269;DHT22;4174;48.304;16.364;2023-07-30T19:49:52;21.00;99.90
8269;DHT22;4174;48.304;16.364;2023-07-30T19:55:56;21.00;99.90
8269;DHT22;4174;48.304;16.364;2023-07-30T20:02:00;21.10;99.90
8269;DHT22;4174;48.304;16.364;2023-07-30T20:08:04;21.10;99.90
8269;DHT22;4174;48.304;16.364;2023-07-30T20:14:08;21.10;99.90
8269;DHT22;4174;48.304;16.364;2023-07-30T20:20:11;21.00;99.90
8269;DHT22;4174;48.304;16.364;2023-07-30T20:26:16;21.10;99.90
8269;DHT22;4174;48.304;16.364;2023-07-30T20:32:19;20.90;99.90
8269;DHT22;4174;48.304;16.364;2023-07-30T20:38:23;20.90;99.90
8269;DHT22;4174;48.304;16.364;2023-07-30T20:44:27;20.90;99.90
8269;DHT22;4174;48.304;16.364;2023-07-30T20:50:30;20.90;99.90
8269;DHT22;4174;48.304;16.364;2023-07-30T20:56:34;20.90;99.90
8269;DHT22;4174;48.304;16.364;2023-07-30T21:02:38;20.90;99.90
8269;DHT22;4174;48.304;16.364;2023-07-30T21:08:41;21.10;99.90
8269;DHT22;4174;48.304;16.364;2023-07-30T21:14:45;21.10;99.90
8269;DHT22;4174;48.304;16.364;2023-07-30T21:20:49;21.10;99.90
8269;DHT22;4174;48.304;16.364;2023-07-30T21:26:53;21.10;99.90
8269;DHT22;4174;48.304;16.364;2023-07-30T21:32:57;21.00;99.90
8269;DHT22;4174;48.304;16.364;2023-07-30T21:39:00;20.80;99.90
8269;DHT22;4174;48.304;16.364;2023-07-30T21:45:04;20.70;99.90
8269;DHT22;4174;48.304;16.364;2023-07-30T21:51:08;20.70;99.90
8269;DHT22;4174;48.304;16.364;2023-07-30T21:57:13;20.60;99.90
8269;DHT22;4174;48.304;16.364;2023-07-30T22:03:16;20.60;99.90
8269;DHT22;4174;48.304;16.364;2023-07-30T22:09:20;20.70;99.90
8269;DHT22;4174;48.304;16.364;2023-07-30T22:15:24;20.70;99.90
8269;DHT22;4174;48.304;16.364;2023-07-30T22:21:29;20.70;99.90
8269;DHT22;4174;48.304;16.364;2023-07-30T22:27:33;20.70;99.90
8269;DHT22;4174;48.304;16.364;2023-07-30T22:33:39;20.60;99.90
8269;DHT22;4174;48.304;16.364;2023-07-30T22:39:45;20.60;99.90
8269;DHT22;4174;48.304;16.364;2023-07-30T22:45:49;20.60;99.90
8269;DHT22;4174;48.304;16.364;2023-07-30T22:51:52;20.50;99.90
8269;DHT22;4174;48.304;16.364;2023-07-30T22:57:57;20.40;99.90
8269;DHT22;4174;48.304;16.364;2023-07-30T23:04:01;20.40;99.90
8269;DHT22;4174;48.304;16.364;2023-07-30T23:10:06;20.30;99.90
8269;DHT22;4174;48.304;16.364;2023-07-30T23:16:12;20.10;99.90
8269;DHT22;4174;48.304;16.364;2023-07-30T23:22:15;20.10;99.90
8269;DHT22;4174;48.304;16.364;2023-07-30T23:28:19;19.90;99.90
8269;DHT22;4174;48.304;16.364;2023-07-30T23:34:23;19.90;99.90
8269;DHT22;4174;48.304;16.364;2023-07-30T23:40:28;19.80;99.90
8269;DHT22;4174;48.304;16.364;2023-07-30T23:46:32;19.80;99.90
8269;DHT22;4174;48.304;16.364;2023-07-30T23:52:35;19.70;99.90
8269;DHT22;4174;48.304;16.364;2023-07-30T23:58:39;19.70;99.90
